• Join FlightAware (Why Join?)
  • Login
  • US Flag 
03:27AM EDT


 

Airport Tracker/Info


-or-


 

Live Flight TrackerFlight Track Log ✈ FDX1989 ✈ 08-May-2013 ✈ KATL - KFLL

Flight Track Log - Related Links

Times and Time Zones

All times are in EDT time to prevent confusion due to time zone crossing. See the FDX1989 flight status page for this flight to view local times or setup timezone preferences in your user account.

Time Position Orientation Groundspeed Altitude Reporting Facility
EDT Latitude Longitude Course Direction KTS MPH feet Rate Location/Type
06:39AM 33.6480 -84.4600 274° West 202 232 3,600  Level FlightAware
06:39AM 33.6520 -84.5020 277° West 245 282 6,000 4,800 Climbing FlightAware
06:40AM 33.6550 -84.5430 275° West 266 306 8,400 3,900 Climbing FlightAware
06:40AM 33.6590 -84.5820 277° West 286 329 9,600 1,620 Climbing FlightAware
06:40AM 33.6520 -84.6270 259° West 291 335 9,900 300 Climbing FlightAware
06:41AM 33.6260 -84.6510 218° Southwest 302 348 9,900  Level FlightAware
06:42AM 33.5610 -84.6410 173° South 293 337 9,900 60 Level FlightAware
06:42AM 33.5270 -84.6280 162° South 301 346 10,000  Climbing FlightAware
06:42AM 33.5160 -84.6240 163° South 300 345 9,900 -180 Descending FlightAware
06:43AM 33.4740 -84.6080 162° South 300 345 9,900  Level FlightAware
06:43AM 33.4520 -84.5990 161° South 300 345 9,900  Level FlightAware
06:43AM 33.4290 -84.5910 164° South 300 345 9,900 2,700 Level FlightAware
06:44AM 33.3550 -84.5640 163° South 389 448 12,600 4,320 Climbing FlightAware
06:45AM 33.2570 -84.5290 163° South 423 487 16,100 4,080 Climbing FlightAware
06:45AM 33.1980 -84.5080 163° South 439 505 18,100 3,780 Climbing FlightAware
06:46AM 33.0900 -84.4680 163° South 456 525 21,500 3,660 Climbing FlightAware
06:47AM 33.0080 -84.4430 166° South 461 531 23,600 2,940 Climbing FlightAware
06:48AM 32.9210 -84.4190 167° South 479 551 25,700 2,820 Climbing FlightAware
06:48AM 32.8270 -84.3920 166° South 482 555 27,600 3,180 Climbing FlightAware
06:49AM 32.7380 -84.3670 167° South 482 555 30,000 3,300 Climbing FlightAware
06:50AM 32.6430 -84.3400 167° South 478 550 32,300 2,040 Climbing FlightAware
06:51AM 32.5440 -84.3110 166° South 475 547 33,300 660 Climbing FlightAware
06:51AM 32.4720 -84.2900 166° South 475 547 33,300  Level FlightAware
06:52AM 32.3990 -84.2680 166° South 475 547 33,300  Level FlightAware
06:53AM 32.3090 -84.2420 166° South 475 547 33,300  Level FlightAware
06:53AM 32.2360 -84.2200 166° South 475 547 33,300  Level FlightAware
06:54AM 32.1640 -84.1990 166° South 475 547 33,300  Level FlightAware
06:55AM 32.0910 -84.1770 166° South 475 547 33,300  Level FlightAware
06:56AM 32.0010 -84.1510 166° South 475 547 33,300  Level FlightAware
06:56AM 31.9280 -84.1290 166° South 475 547 33,300  Level FlightAware
06:57AM 31.8560 -84.1080 166° South 475 547 33,300  Level FlightAware
06:58AM 31.7830 -84.0870 166° South 475 547 33,300  Level FlightAware
06:58AM 31.7110 -84.0660 166° South 475 547 33,300  Level FlightAware
06:59AM 31.6200 -84.0390 166° South 475 547 33,300  Level FlightAware
07:00AM 31.5480 -84.0180 166° South 475 547 33,300 1,320 Level FlightAware
07:02AM 31.0880 -83.9070 168° South 473 544 37,000 1,200 Climbing FlightAware
07:03AM 31.0900 -83.9070 360° North 472 543 37,000  Level FlightAware
07:04AM 30.8650 -83.8470 167° South 471 542 37,000  Level FlightAware
07:04AM 30.7580 -83.8170 166° South 471 542 37,000  Level FlightAware
07:05AM 30.7580 -83.8170 166° South 472 543 37,000  Level FlightAware
07:06AM 30.5810 -83.7690 167° South 475 547 37,000  Level FlightAware
07:07AM 30.4830 -83.7280 160° South 484 557 37,000  Level FlightAware
07:07AM 30.3680 -83.6710 157° South 475 547 37,000  Level FlightAware
07:08AM 30.2770 -83.6250 156° South 476 548 37,000  Level FlightAware
07:09AM 30.1930 -83.5830 157° South 474 545 37,000  Level FlightAware
07:10AM 30.1000 -83.5380 157° South 475 547 37,000  Level FlightAware
07:10AM 30.0180 -83.4990 158° South 474 545 37,000  Level FlightAware
07:11AM 29.9350 -83.4580 157° South 472 543 37,000  Level FlightAware
07:12AM 29.8440 -83.4140 157° South 470 541 37,000  Level FlightAware
07:12AM 29.7610 -83.3730 157° South 471 542 37,000  Level FlightAware
07:13AM 29.6700 -83.3280 157° South 471 542 37,000  Level FlightAware
07:14AM 29.5890 -83.2890 157° South 471 542 37,000  Level FlightAware
07:14AM 29.5060 -83.2490 157° South 471 542 37,000  Level FlightAware
07:15AM 29.4150 -83.2050 157° South 469 540 37,000  Level FlightAware
07:16AM 29.3330 -83.1650 157° South 469 540 37,000  Level FlightAware
07:17AM 29.2410 -83.1220 158° South 472 543 37,000  Level FlightAware
07:17AM 29.1580 -83.0810 157° South 472 543 37,000  Level FlightAware
07:19AM 28.9850 -82.9990 157° South 471 542 37,000  Level FlightAware
07:20AM 28.8450 -82.9310 157° South 472 543 37,000  Level FlightAware
07:21AM 28.7640 -82.8920 157° South 472 543 37,000  Level FlightAware
07:21AM 28.6790 -82.8520 158° South 473 544 37,000  Level FlightAware
07:22AM 28.5890 -82.8100 158° South 473 544 37,000  Level FlightAware
07:23AM 28.5080 -82.7720 158° South 470 541 37,000  Level FlightAware
07:23AM 28.4210 -82.7300 157° South 466 536 37,000  Level FlightAware
07:24AM 28.3410 -82.6920 157° South 465 535 37,000  Level FlightAware
07:25AM 28.2580 -82.6530 158° South 466 536 37,000  Level FlightAware
07:25AM 28.1700 -82.6120 158° South 457 526 37,000  Level FlightAware
07:26AM 28.0920 -82.5750 157° South 454 522 37,000  Level FlightAware
07:27AM 28.0020 -82.5340 158° South 460 529 37,000  Level FlightAware
07:28AM 27.9260 -82.5000 158° South 455 524 37,000 -120 Level FlightAware
07:28AM 27.8460 -82.4720 163° South 457 526 36,900 -600 Descending FlightAware
07:29AM 27.7520 -82.4360 161° South 462 532 36,200 -1,020 Descending FlightAware
07:30AM 27.6710 -82.4070 162° South 466 536 35,500 -1,020 Descending FlightAware
07:30AM 27.5790 -82.3730 162° South 462 532 34,800 -1,020 Descending FlightAware
07:31AM 27.5000 -82.3440 162° South 460 529 34,100 -1,080 Descending FlightAware
07:32AM 27.4050 -82.3090 162° South 458 527 33,300 -1,080 Descending FlightAware
07:32AM 27.3280 -82.2810 162° South 465 535 32,600 -1,080 Descending FlightAware
07:33AM 27.2410 -82.2500 162° South 471 542 31,900 -1,020 Descending FlightAware
07:34AM 27.1480 -82.2160 162° South 476 548 31,200 -1,020 Descending FlightAware
07:35AM 27.0660 -82.1860 162° South 479 551 30,500 -1,080 Descending FlightAware
07:35AM 26.9670 -82.1500 162° South 480 552 29,700 -1,080 Descending FlightAware
07:36AM 26.9010 -82.1250 161° South 486 559 29,100 -1,020 Descending FlightAware
07:37AM 26.8070 -82.0490 144° Southeast 508 585 28,300 -1,080 Descending FlightAware
07:37AM 26.7500 -81.9610 126° Southeast 494 568 27,500 -1,140 Descending FlightAware
07:38AM 26.6800 -81.8510 125° Southeast 483 556 26,500 -1,080 Descending FlightAware
07:39AM 26.6200 -81.7600 126° Southeast 478 550 25,700 -1,080 Descending FlightAware
07:40AM 26.5690 -81.6810 126° Southeast 479 551 25,000 -1,500 Descending FlightAware
07:40AM 26.5140 -81.5970 126° Southeast 467 537 23,700 -2,700 Descending FlightAware
07:41AM 26.4600 -81.5120 125° Southeast 452 520 21,200 -3,480 Descending FlightAware
07:42AM 26.4090 -81.4340 126° Southeast 441 507 18,800 -3,480 Descending FlightAware
07:43AM 26.3550 -81.3530 127° Southeast 429 494 16,300 -3,360 Descending FlightAware
07:43AM 26.3100 -81.2820 125° Southeast 419 482 14,100 -3,300 Descending FlightAware
07:44AM 26.2660 -81.2160 127° Southeast 403 464 11,900 -1,560 Descending FlightAware
07:45AM 26.2210 -81.1470 126° Southeast 403 464 11,900 -1,200 Level FlightAware
07:45AM 26.1800 -81.0850 126° Southeast 309 356 10,200 -2,400 Descending FlightAware
07:46AM 26.1550 -81.0480 127° Southeast 306 352 9,100 -1,860 Descending FlightAware
07:46AM 26.1340 -81.0160 126° Southeast 303 349 8,500 -1,320 Descending FlightAware
07:47AM 26.1100 -80.9770 124° Southeast 298 343 7,900 -960 Descending FlightAware
07:47AM 26.1020 -80.9570 114° Southeast 305 351 7,800 -1,200 Descending FlightAware
07:47AM 26.0990 -80.9210 95° East 303 349 7,100 -1,140 Descending FlightAware
07:48AM 26.0970 -80.8740 93° East 303 349 6,800 -300 Descending FlightAware
07:48AM 26.0940 -80.8300 94° East 304 350 6,800 60 Level FlightAware
07:49AM 26.0910 -80.7880 95° East 304 350 6,900 120 Climbing FlightAware
07:49AM 26.0890 -80.7550 94° East 305 351 6,900  Level FlightAware
07:50AM 26.0920 -80.7170 85° East 306 352 6,900  Level FlightAware
07:50AM 26.0970 -80.6780 82° East 306 352 6,900  Level FlightAware
07:50AM 26.1010 -80.6340 84° East 306 352 6,900  Level FlightAware
07:51AM 26.1060 -80.5870 83° East 307 353 6,900  Level FlightAware
07:51AM 26.1100 -80.5430 84° East 308 354 6,900  Level FlightAware
07:52AM 26.1130 -80.5190 82° East 308 354 6,900  Level FlightAware
07:52AM 26.1170 -80.4810 83° East 307 353 6,900  Level FlightAware
07:53AM 26.1220 -80.4340 83° East 308 354 6,900  Level FlightAware
07:53AM 26.1270 -80.3850 84° East 309 356 6,900  Level FlightAware
07:53AM 26.1310 -80.3470 83° East 308 354 6,900  Level FlightAware
07:54AM 26.1360 -80.2990 83° East 309 356 6,900  Level FlightAware
07:54AM 26.1400 -80.2610 83° East 308 354 6,900  Level FlightAware
07:55AM 26.1420 -80.2360 85° East 308 354 6,900 -180 Level FlightAware
07:55AM 26.1460 -80.1970 83° East 295 339 6,800 -120 Descending FlightAware
07:56AM 26.1510 -80.1470 84° East 266 306 6,800 -420 Level FlightAware
07:56AM 26.1530 -80.1130 86° East 260 299 6,400 -1,020 Descending FlightAware
07:57AM 26.1540 -80.0700 89° East 252 290 5,900 -1,140 Descending FlightAware
07:57AM 26.1550 -80.0390 88° East 249 287 5,400 -1,080 Descending FlightAware
07:57AM 26.1560 -80.0090 88° East 243 280 5,000 -960 Descending FlightAware
07:58AM 26.1570 -79.9830 88° East 237 273 4,700 -960 Descending FlightAware
07:58AM 26.1590 -79.9530 86° East 231 266 4,300 -960 Descending FlightAware
07:58AM 26.1600 -79.9290 87° East 227 261 4,000 -960 Descending FlightAware
07:59AM 26.1530 -79.9050 108° East 215 247 3,600 -1,080 Descending FlightAware
07:59AM 26.1390 -79.8960 150° Southeast 201 231 3,300 -1,080 Descending FlightAware
08:00AM 26.1180 -79.8930 173° South 197 227 2,900 -1,320 Descending FlightAware
08:00AM 26.0880 -79.8970 187° South 206 237 2,100 -1,380 Descending FlightAware
08:00AM 26.0820 -79.9030 222° Southwest 209 241 2,000 -480 Descending FlightAware
08:00AM 26.0760 -79.9190 247° West 211 243 1,900 -360 Descending FlightAware
08:01AM 26.0760 -79.9400 270° West 201 231 1,800  Descending FlightAware
08:01AM 26.0760 -79.9640 270° West 180 207 1,900 60 Climbing FlightAware
08:02AM 26.0760 -80.0020 270° West 171 197 1,900 -120 Level FlightAware
08:02AM 26.0760 -80.0290 270° West 166 191 1,800 -600 Descending FlightAware
08:03AM 26.0760 -80.0550 270° West 137 158 1,300 -780 Descending FlightAware
08:04AM 26.0760 -80.0790 270° West 119 137 900 -600 Descending FlightAware
08:04AM 26.0770 -80.0940 274° West 119 137 700 -600 Descending FlightAware
08:04AM 26.0770 -80.1030 270° West 119 137 500 -600 Descending FlightAware
08:05AM 26.0770 -80.1170 270° West 116 133 300 -360 Descending FlightAware
08:05AM 26.0770 -80.1440 270° West 116 133 100 -300 Descending FlightAware
08:12AM 26.0667 -80.1500 270° West  Level FlightAware Approximate